sensor_id;sensor_type;location;lat;lon;timestamp;P1;durP1;ratioP1;P2;durP2;ratioP2
78120;SDS011;67585;44.802;10.332;2023-04-29T00:01:04;4.88;;;1.30;;
78120;SDS011;67585;44.802;10.332;2023-04-29T00:03:29;4.30;;;0.63;;
78120;SDS011;67585;44.802;10.332;2023-04-29T00:05:56;4.78;;;1.40;;
78120;SDS011;67585;44.802;10.332;2023-04-29T00:08:23;5.85;;;1.50;;
78120;SDS011;67585;44.802;10.332;2023-04-29T00:10:48;3.78;;;1.42;;
78120;SDS011;67585;44.802;10.332;2023-04-29T00:13:14;5.28;;;1.23;;
78120;SDS011;67585;44.802;10.332;2023-04-29T00:15:40;4.30;;;1.73;;
78120;SDS011;67585;44.802;10.332;2023-04-29T00:18:06;6.75;;;1.15;;
78120;SDS011;67585;44.802;10.332;2023-04-29T00:20:31;3.40;;;1.95;;
78120;SDS011;67585;44.802;10.332;2023-04-29T00:22:57;3.58;;;1.63;;
78120;SDS011;67585;44.802;10.332;2023-04-29T00:25:22;5.85;;;1.77;;
78120;SDS011;67585;44.802;10.332;2023-04-29T00:27:48;4.57;;;1.73;;
78120;SDS011;67585;44.802;10.332;2023-04-29T00:30:13;3.75;;;1.55;;
78120;SDS011;67585;44.802;10.332;2023-04-29T00:32:39;4.32;;;1.77;;
78120;SDS011;67585;44.802;10.332;2023-04-29T00:35:05;5.35;;;0.73;;
78120;SDS011;67585;44.802;10.332;2023-04-29T00:37:30;4.10;;;1.65;;
78120;SDS011;67585;44.802;10.332;2023-04-29T00:39:57;5.15;;;2.15;;
78120;SDS011;67585;44.802;10.332;2023-04-29T00:42:23;8.00;;;2.10;;
78120;SDS011;67585;44.802;10.332;2023-04-29T00:44:49;6.90;;;2.35;;
78120;SDS011;67585;44.802;10.332;2023-04-29T00:47:15;4.97;;;1.70;;
78120;SDS011;67585;44.802;10.332;2023-04-29T00:49:40;5.53;;;0.98;;
78120;SDS011;67585;44.802;10.332;2023-04-29T00:52:06;5.63;;;1.65;;
78120;SDS011;67585;44.802;10.332;2023-04-29T00:54:32;6.10;;;2.40;;
78120;SDS011;67585;44.802;10.332;2023-04-29T00:57:00;5.30;;;1.05;;
78120;SDS011;67585;44.802;10.332;2023-04-29T00:59:27;5.60;;;2.42;;
78120;SDS011;67585;44.802;10.332;2023-04-29T01:01:57;7.60;;;2.50;;
78120;SDS011;67585;44.802;10.332;2023-04-29T01:04:28;8.45;;;2.40;;
78120;SDS011;67585;44.802;10.332;2023-04-29T01:12:20;8.40;;;3.15;;
78120;SDS011;67585;44.802;10.332;2023-04-29T01:15:03;10.95;;;2.83;;
78120;SDS011;67585;44.802;10.332;2023-04-29T01:17:36;6.05;;;3.53;;
78120;SDS011;67585;44.802;10.332;2023-04-29T01:22:31;11.80;;;3.63;;
78120;SDS011;67585;44.802;10.332;2023-04-29T01:24:56;6.13;;;3.20;;
78120;SDS011;67585;44.802;10.332;2023-04-29T01:30:22;6.40;;;3.58;;
78120;SDS011;67585;44.802;10.332;2023-04-29T01:33:22;7.20;;;3.17;;
78120;SDS011;67585;44.802;10.332;2023-04-29T01:38:52;9.05;;;3.83;;
78120;SDS011;67585;44.802;10.332;2023-04-29T01:41:38;12.85;;;3.35;;
78120;SDS011;67585;44.802;10.332;2023-04-29T01:44:07;8.07;;;3.63;;
78120;SDS011;67585;44.802;10.332;2023-04-29T01:46:39;9.00;;;3.53;;
78120;SDS011;67585;44.802;10.332;2023-04-29T01:49:06;10.93;;;3.35;;
78120;SDS011;67585;44.802;10.332;2023-04-29T01:51:31;8.07;;;3.33;;
78120;SDS011;67585;44.802;10.332;2023-04-29T01:53:58;7.55;;;3.80;;
78120;SDS011;67585;44.802;10.332;2023-04-29T01:56:23;14.27;;;4.10;;
78120;SDS011;67585;44.802;10.332;2023-04-29T01:58:48;8.55;;;4.03;;
78120;SDS011;67585;44.802;10.332;2023-04-29T02:01:14;6.45;;;2.90;;
78120;SDS011;67585;44.802;10.332;2023-04-29T02:03:39;9.68;;;3.40;;
78120;SDS011;67585;44.802;10.332;2023-04-29T02:06:05;6.60;;;3.40;;
78120;SDS011;67585;44.802;10.332;2023-04-29T02:08:31;8.43;;;3.35;;
78120;SDS011;67585;44.802;10.332;2023-04-29T02:10:57;6.30;;;3.25;;
78120;SDS011;67585;44.802;10.332;2023-04-29T02:13:24;13.43;;;4.43;;
78120;SDS011;67585;44.802;10.332;2023-04-29T02:15:50;10.25;;;3.85;;
78120;SDS011;67585;44.802;10.332;2023-04-29T02:18:15;9.30;;;4.50;;
78120;SDS011;67585;44.802;10.332;2023-04-29T02:20:41;9.05;;;4.22;;
78120;SDS011;67585;44.802;10.332;2023-04-29T02:23:06;12.32;;;4.30;;
78120;SDS011;67585;44.802;10.332;2023-04-29T02:25:32;13.30;;;5.35;;
78120;SDS011;67585;44.802;10.332;2023-04-29T02:27:57;12.02;;;4.90;;
78120;SDS011;67585;44.802;10.332;2023-04-29T02:30:23;17.25;;;5.13;;
78120;SDS011;67585;44.802;10.332;2023-04-29T02:32:48;11.82;;;4.25;;
78120;SDS011;67585;44.802;10.332;2023-04-29T02:35:14;11.23;;;4.68;;
78120;SDS011;67585;44.802;10.332;2023-04-29T02:37:39;13.18;;;4.72;;
78120;SDS011;67585;44.802;10.332;2023-04-29T02:40:05;9.40;;;4.70;;
78120;SDS011;67585;44.802;10.332;2023-04-29T02:42:31;10.40;;;4.25;;
78120;SDS011;67585;44.802;10.332;2023-04-29T02:44:56;11.82;;;4.78;;
78120;SDS011;67585;44.802;10.332;2023-04-29T02:47:22;11.07;;;4.55;;
78120;SDS011;67585;44.802;10.332;2023-04-29T02:49:48;13.70;;;3.28;;
78120;SDS011;67585;44.802;10.332;2023-04-29T02:52:13;10.13;;;4.30;;
78120;SDS011;67585;44.802;10.332;2023-04-29T02:54:39;9.88;;;4.70;;
78120;SDS011;67585;44.802;10.332;2023-04-29T02:57:04;12.25;;;4.38;;
78120;SDS011;67585;44.802;10.332;2023-04-29T02:59:29;11.68;;;5.07;;
78120;SDS011;67585;44.802;10.332;2023-04-29T03:01:55;10.13;;;4.38;;
78120;SDS011;67585;44.802;10.332;2023-04-29T03:04:21;10.50;;;4.65;;
78120;SDS011;67585;44.802;10.332;2023-04-29T03:06:46;12.80;;;4.78;;
78120;SDS011;67585;44.802;10.332;2023-04-29T03:09:11;15.80;;;4.80;;
78120;SDS011;67585;44.802;10.332;2023-04-29T03:11:38;10.75;;;4.97;;
78120;SDS011;67585;44.802;10.332;2023-04-29T03:14:04;12.57;;;5.53;;
78120;SDS011;67585;44.802;10.332;2023-04-29T03:16:29;13.43;;;4.50;;
78120;SDS011;67585;44.802;10.332;2023-04-29T03:18:55;16.42;;;5.43;;
78120;SDS011;67585;44.802;10.332;2023-04-29T03:21:20;13.32;;;5.18;;
78120;SDS011;67585;44.802;10.332;2023-04-29T03:23:46;15.57;;;5.35;;
78120;SDS011;67585;44.802;10.332;2023-04-29T03:26:11;10.90;;;4.47;;
78120;SDS011;67585;44.802;10.332;2023-04-29T03:28:37;13.80;;;4.63;;
78120;SDS011;67585;44.802;10.332;2023-04-29T03:31:02;9.93;;;4.78;;
78120;SDS011;67585;44.802;10.332;2023-04-29T03:33:28;10.65;;;6.15;;
78120;SDS011;67585;44.802;10.332;2023-04-29T03:35:53;11.02;;;4.95;;
78120;SDS011;67585;44.802;10.332;2023-04-29T03:38:19;10.05;;;4.90;;
78120;SDS011;67585;44.802;10.332;2023-04-29T03:40:45;12.90;;;5.45;;
78120;SDS011;67585;44.802;10.332;2023-04-29T03:43:10;10.50;;;4.78;;
78120;SDS011;67585;44.802;10.332;2023-04-29T03:45:37;12.98;;;5.72;;
78120;SDS011;67585;44.802;10.332;2023-04-29T03:48:03;10.52;;;5.65;;
78120;SDS011;67585;44.802;10.332;2023-04-29T03:50:29;10.25;;;4.28;;
78120;SDS011;67585;44.802;10.332;2023-04-29T03:52:54;11.15;;;5.88;;
78120;SDS011;67585;44.802;10.332;2023-04-29T03:55:20;12.15;;;6.28;;
78120;SDS011;67585;44.802;10.332;2023-04-29T03:57:45;12.95;;;4.97;;
78120;SDS011;67585;44.802;10.332;2023-04-29T04:00:11;11.85;;;5.45;;
78120;SDS011;67585;44.802;10.332;2023-04-29T04:02:37;11.10;;;5.57;;
78120;SDS011;67585;44.802;10.332;2023-04-29T04:05:02;12.73;;;5.60;;
78120;SDS011;67585;44.802;10.332;2023-04-29T04:07:28;12.43;;;5.55;;
78120;SDS011;67585;44.802;10.332;2023-04-29T04:09:53;18.27;;;5.30;;
78120;SDS011;67585;44.802;10.332;2023-04-29T04:12:18;11.07;;;5.72;;
78120;SDS011;67585;44.802;10.332;2023-04-29T04:14:44;13.10;;;5.68;;
78120;SDS011;67585;44.802;10.332;2023-04-29T04:17:10;12.73;;;5.25;;
78120;SDS011;67585;44.802;10.332;2023-04-29T04:19:35;15.02;;;5.95;;
78120;SDS011;67585;44.802;10.332;2023-04-29T04:22:02;11.75;;;5.57;;
78120;SDS011;67585;44.802;10.332;2023-04-29T04:26:53;15.38;;;5.72;;
78120;SDS011;67585;44.802;10.332;2023-04-29T04:29:18;15.15;;;4.68;;
78120;SDS011;67585;44.802;10.332;2023-04-29T04:31:44;11.43;;;4.97;;
78120;SDS011;67585;44.802;10.332;2023-04-29T04:34:09;14.98;;;6.30;;
78120;SDS011;67585;44.802;10.332;2023-04-29T04:36:35;12.65;;;5.10;;
78120;SDS011;67585;44.802;10.332;2023-04-29T04:39:00;12.30;;;4.50;;
78120;SDS011;67585;44.802;10.332;2023-04-29T04:41:26;12.30;;;4.05;;
78120;SDS011;67585;44.802;10.332;2023-04-29T04:43:51;13.05;;;5.57;;
78120;SDS011;67585;44.802;10.332;2023-04-29T04:46:16;11.77;;;4.68;;
78120;SDS011;67585;44.802;10.332;2023-04-29T04:48:42;16.13;;;5.90;;
78120;SDS011;67585;44.802;10.332;2023-04-29T04:51:11;9.70;;;4.43;;
78120;SDS011;67585;44.802;10.332;2023-04-29T04:53:37;11.95;;;4.85;;
78120;SDS011;67585;44.802;10.332;2023-04-29T04:56:03;22.65;;;6.00;;
78120;SDS011;67585;44.802;10.332;2023-04-29T04:58:30;11.13;;;4.65;;
78120;SDS011;67585;44.802;10.332;2023-04-29T05:00:56;11.23;;;5.10;;
78120;SDS011;67585;44.802;10.332;2023-04-29T05:03:22;12.30;;;4.85;;
78120;SDS011;67585;44.802;10.332;2023-04-29T05:08:23;14.65;;;5.95;;
78120;SDS011;67585;44.802;10.332;2023-04-29T05:10:48;16.73;;;5.32;;
78120;SDS011;67585;44.802;10.332;2023-04-29T05:13:14;12.90;;;6.28;;
78120;SDS011;67585;44.802;10.332;2023-04-29T05:15:39;15.85;;;5.63;;
78120;SDS011;67585;44.802;10.332;2023-04-29T05:18:05;14.73;;;6.57;;
78120;SDS011;67585;44.802;10.332;2023-04-29T05:20:30;14.10;;;5.80;;
78120;SDS011;67585;44.802;10.332;2023-04-29T05:22:56;13.20;;;4.40;;
78120;SDS011;67585;44.802;10.332;2023-04-29T05:25:21;11.57;;;4.78;;
78120;SDS011;67585;44.802;10.332;2023-04-29T05:27:47;10.13;;;4.53;;
78120;SDS011;67585;44.802;10.332;2023-04-29T05:30:12;16.65;;;5.43;;
78120;SDS011;67585;44.802;10.332;2023-04-29T05:32:37;11.02;;;4.15;;
78120;SDS011;67585;44.802;10.332;2023-04-29T05:35:03;8.43;;;4.07;;
78120;SDS011;67585;44.802;10.332;2023-04-29T05:37:29;9.65;;;3.80;;
78120;SDS011;67585;44.802;10.332;2023-04-29T05:39:56;8.70;;;4.32;;
78120;SDS011;67585;44.802;10.332;2023-04-29T05:42:21;11.65;;;4.63;;
78120;SDS011;67585;44.802;10.332;2023-04-29T05:44:47;8.65;;;4.18;;
78120;SDS011;67585;44.802;10.332;2023-04-29T05:47:13;11.70;;;5.03;;
78120;SDS011;67585;44.802;10.332;2023-04-29T05:49:38;12.45;;;4.70;;
78120;SDS011;67585;44.802;10.332;2023-04-29T05:52:04;9.25;;;3.80;;
78120;SDS011;67585;44.802;10.332;2023-04-29T05:54:31;9.90;;;4.45;;
78120;SDS011;67585;44.802;10.332;2023-04-29T05:56:57;9.07;;;4.32;;
78120;SDS011;67585;44.802;10.332;2023-04-29T05:59:22;13.00;;;4.93;;
78120;SDS011;67585;44.802;10.332;2023-04-29T06:01:47;11.35;;;5.15;;
78120;SDS011;67585;44.802;10.332;2023-04-29T06:04:13;12.73;;;4.85;;
78120;SDS011;67585;44.802;10.332;2023-04-29T06:06:38;10.68;;;5.50;;
78120;SDS011;67585;44.802;10.332;2023-04-29T06:09:04;17.02;;;5.85;;
78120;SDS011;67585;44.802;10.332;2023-04-29T06:11:29;13.52;;;6.20;;
78120;SDS011;67585;44.802;10.332;2023-04-29T06:13:55;13.20;;;5.55;;
78120;SDS011;67585;44.802;10.332;2023-04-29T06:16:21;13.07;;;5.68;;
78120;SDS011;67585;44.802;10.332;2023-04-29T06:18:47;12.27;;;5.68;;
78120;SDS011;67585;44.802;10.332;2023-04-29T06:21:12;11.60;;;5.28;;
78120;SDS011;67585;44.802;10.332;2023-04-29T06:23:37;16.02;;;5.65;;
78120;SDS011;67585;44.802;10.332;2023-04-29T06:26:03;16.08;;;6.97;;
78120;SDS011;67585;44.802;10.332;2023-04-29T06:28:28;11.00;;;5.63;;
78120;SDS011;67585;44.802;10.332;2023-04-29T06:30:54;12.63;;;6.05;;
78120;SDS011;67585;44.802;10.332;2023-04-29T06:33:19;16.58;;;6.53;;
78120;SDS011;67585;44.802;10.332;2023-04-29T06:35:45;14.10;;;5.22;;
78120;SDS011;67585;44.802;10.332;2023-04-29T06:38:10;12.50;;;5.85;;
78120;SDS011;67585;44.802;10.332;2023-04-29T06:40:36;14.70;;;6.57;;
78120;SDS011;67585;44.802;10.332;2023-04-29T06:43:01;14.90;;;5.20;;
78120;SDS011;67585;44.802;10.332;2023-04-29T06:45:28;13.43;;;5.57;;
78120;SDS011;67585;44.802;10.332;2023-04-29T06:47:54;11.57;;;5.97;;
78120;SDS011;67585;44.802;10.332;2023-04-29T06:50:19;15.32;;;5.25;;
78120;SDS011;67585;44.802;10.332;2023-04-29T06:52:45;13.18;;;6.75;;
78120;SDS011;67585;44.802;10.332;2023-04-29T06:55:10;12.02;;;5.47;;
78120;SDS011;67585;44.802;10.332;2023-04-29T06:57:36;14.55;;;6.47;;
78120;SDS011;67585;44.802;10.332;2023-04-29T07:00:02;16.85;;;6.95;;
78120;SDS011;67585;44.802;10.332;2023-04-29T07:02:28;19.92;;;7.40;;
78120;SDS011;67585;44.802;10.332;2023-04-29T07:04:54;17.90;;;7.78;;
78120;SDS011;67585;44.802;10.332;2023-04-29T07:07:19;16.45;;;7.28;;
78120;SDS011;67585;44.802;10.332;2023-04-29T07:09:44;15.95;;;7.28;;
78120;SDS011;67585;44.802;10.332;2023-04-29T07:12:10;19.73;;;9.25;;
78120;SDS011;67585;44.802;10.332;2023-04-29T07:14:35;12.65;;;6.88;;
78120;SDS011;67585;44.802;10.332;2023-04-29T07:17:01;18.05;;;5.88;;
78120;SDS011;67585;44.802;10.332;2023-04-29T07:19:27;16.77;;;8.10;;
78120;SDS011;67585;44.802;10.332;2023-04-29T07:21:52;15.60;;;8.10;;
78120;SDS011;67585;44.802;10.332;2023-04-29T07:24:17;16.65;;;8.35;;
78120;SDS011;67585;44.802;10.332;2023-04-29T07:26:43;15.50;;;6.22;;
78120;SDS011;67585;44.802;10.332;2023-04-29T07:29:11;14.40;;;6.50;;
78120;SDS011;67585;44.802;10.332;2023-04-29T07:31:36;15.40;;;6.93;;
78120;SDS011;67585;44.802;10.332;2023-04-29T07:34:02;15.85;;;7.03;;
78120;SDS011;67585;44.802;10.332;2023-04-29T07:36:28;14.23;;;7.13;;
78120;SDS011;67585;44.802;10.332;2023-04-29T07:38:53;11.68;;;6.00;;
78120;SDS011;67585;44.802;10.332;2023-04-29T07:41:19;16.48;;;6.05;;
78120;SDS011;67585;44.802;10.332;2023-04-29T07:43:45;17.33;;;7.07;;
78120;SDS011;67585;44.802;10.332;2023-04-29T07:46:10;16.80;;;6.95;;
78120;SDS011;67585;44.802;10.332;2023-04-29T07:48:36;18.20;;;6.22;;
78120;SDS011;67585;44.802;10.332;2023-04-29T07:51:03;14.90;;;6.65;;
78120;SDS011;67585;44.802;10.332;2023-04-29T07:53:31;15.50;;;8.15;;
78120;SDS011;67585;44.802;10.332;2023-04-29T07:55:56;14.15;;;6.55;;
78120;SDS011;67585;44.802;10.332;2023-04-29T07:58:22;14.43;;;5.80;;
78120;SDS011;67585;44.802;10.332;2023-04-29T08:00:47;15.45;;;7.07;;
78120;SDS011;67585;44.802;10.332;2023-04-29T08:03:12;15.73;;;6.72;;
78120;SDS011;67585;44.802;10.332;2023-04-29T08:05:38;14.52;;;7.03;;
78120;SDS011;67585;44.802;10.332;2023-04-29T08:08:03;16.23;;;7.15;;
78120;SDS011;67585;44.802;10.332;2023-04-29T08:10:29;18.33;;;6.88;;
78120;SDS011;67585;44.802;10.332;2023-04-29T08:12:56;15.10;;;5.95;;
78120;SDS011;67585;44.802;10.332;2023-04-29T08:15:21;18.13;;;7.13;;
78120;SDS011;67585;44.802;10.332;2023-04-29T08:17:47;16.27;;;7.18;;
78120;SDS011;67585;44.802;10.332;2023-04-29T08:20:12;19.25;;;9.60;;
78120;SDS011;67585;44.802;10.332;2023-04-29T08:22:39;15.65;;;7.47;;
78120;SDS011;67585;44.802;10.332;2023-04-29T08:25:04;18.17;;;8.15;;
78120;SDS011;67585;44.802;10.332;2023-04-29T08:27:30;16.73;;;7.97;;
78120;SDS011;67585;44.802;10.332;2023-04-29T08:29:56;19.27;;;8.70;;
78120;SDS011;67585;44.802;10.332;2023-04-29T08:32:21;18.88;;;8.27;;
78120;SDS011;67585;44.802;10.332;2023-04-29T08:34:47;17.67;;;9.18;;
78120;SDS011;67585;44.802;10.332;2023-04-29T08:37:12;21.13;;;9.82;;
78120;SDS011;67585;44.802;10.332;2023-04-29T08:39:38;19.52;;;9.05;;
78120;SDS011;67585;44.802;10.332;2023-04-29T08:42:07;18.17;;;8.38;;
78120;SDS011;67585;44.802;10.332;2023-04-29T08:44:33;18.77;;;8.07;;
78120;SDS011;67585;44.802;10.332;2023-04-29T08:46:59;22.85;;;8.50;;
78120;SDS011;67585;44.802;10.332;2023-04-29T08:49:27;15.77;;;8.60;;
78120;SDS011;67585;44.802;10.332;2023-04-29T08:51:53;17.20;;;7.80;;
78120;SDS011;67585;44.802;10.332;2023-04-29T08:54:18;18.83;;;8.88;;
78120;SDS011;67585;44.802;10.332;2023-04-29T08:56:44;18.67;;;7.50;;
78120;SDS011;67585;44.802;10.332;2023-04-29T08:59:11;15.40;;;7.03;;
78120;SDS011;67585;44.802;10.332;2023-04-29T09:01:39;16.00;;;7.93;;
78120;SDS011;67585;44.802;10.332;2023-04-29T09:04:14;12.00;;;6.72;;
78120;SDS011;67585;44.802;10.332;2023-04-29T09:07:01;21.83;;;8.43;;
78120;SDS011;67585;44.802;10.332;2023-04-29T09:09:29;18.50;;;8.50;;
78120;SDS011;67585;44.802;10.332;2023-04-29T09:11:57;13.63;;;5.63;;
78120;SDS011;67585;44.802;10.332;2023-04-29T09:14:23;11.85;;;6.05;;
78120;SDS011;67585;44.802;10.332;2023-04-29T09:16:49;63.00;;;30.15;;
78120;SDS011;67585;44.802;10.332;2023-04-29T09:19:28;20.50;;;9.32;;
78120;SDS011;67585;44.802;10.332;2023-04-29T09:21:55;17.38;;;7.30;;
78120;SDS011;67585;44.802;10.332;2023-04-29T09:24:24;13.63;;;8.27;;
78120;SDS011;67585;44.802;10.332;2023-04-29T09:26:54;17.20;;;7.82;;
78120;SDS011;67585;44.802;10.332;2023-04-29T09:29:20;18.08;;;7.45;;
78120;SDS011;67585;44.802;10.332;2023-04-29T09:31:46;18.33;;;7.57;;
78120;SDS011;67585;44.802;10.332;2023-04-29T09:34:13;19.45;;;8.70;;
78120;SDS011;67585;44.802;10.332;2023-04-29T09:36:46;22.45;;;9.32;;
78120;SDS011;67585;44.802;10.332;2023-04-29T09:39:19;18.15;;;8.35;;
78120;SDS011;67585;44.802;10.332;2023-04-29T09:44:18;14.88;;;7.85;;
78120;SDS011;67585;44.802;10.332;2023-04-29T09:46:56;19.63;;;8.70;;
78120;SDS011;67585;44.802;10.332;2023-04-29T09:49:24;19.10;;;8.75;;
78120;SDS011;67585;44.802;10.332;2023-04-29T09:51:51;21.77;;;8.38;;
78120;SDS011;67585;44.802;10.332;2023-04-29T09:54:21;15.68;;;8.82;;
78120;SDS011;67585;44.802;10.332;2023-04-29T09:56:52;23.13;;;10.52;;
78120;SDS011;67585;44.802;10.332;2023-04-29T09:59:19;19.38;;;10.77;;
78120;SDS011;67585;44.802;10.332;2023-04-29T10:01:48;20.60;;;10.15;;
78120;SDS011;67585;44.802;10.332;2023-04-29T10:04:17;20.30;;;11.02;;
78120;SDS011;67585;44.802;10.332;2023-04-29T10:06:46;22.38;;;11.23;;
78120;SDS011;67585;44.802;10.332;2023-04-29T10:09:13;22.42;;;10.73;;
78120;SDS011;67585;44.802;10.332;2023-04-29T10:11:43;25.65;;;10.40;;
78120;SDS011;67585;44.802;10.332;2023-04-29T10:14:14;20.48;;;10.13;;
78120;SDS011;67585;44.802;10.332;2023-04-29T10:16:58;25.52;;;10.60;;
78120;SDS011;67585;44.802;10.332;2023-04-29T10:19:38;24.42;;;10.70;;
78120;SDS011;67585;44.802;10.332;2023-04-29T10:22:12;20.83;;;10.05;;
78120;SDS011;67585;44.802;10.332;2023-04-29T10:24:51;24.00;;;9.52;;
78120;SDS011;67585;44.802;10.332;2023-04-29T10:27:19;21.67;;;9.85;;
78120;SDS011;67585;44.802;10.332;2023-04-29T10:29:47;19.90;;;8.27;;
78120;SDS011;67585;44.802;10.332;2023-04-29T10:32:14;21.00;;;9.25;;
78120;SDS011;67585;44.802;10.332;2023-04-29T10:34:39;19.25;;;8.32;;
78120;SDS011;67585;44.802;10.332;2023-04-29T10:39:38;15.68;;;6.63;;
78120;SDS011;67585;44.802;10.332;2023-04-29T10:42:19;17.00;;;9.82;;
78120;SDS011;67585;44.802;10.332;2023-04-29T10:53:14;22.10;;;10.18;;
78120;SDS011;67585;44.802;10.332;2023-04-29T10:55:40;21.45;;;9.25;;
78120;SDS011;67585;44.802;10.332;2023-04-29T11:00:57;20.60;;;10.60;;
78120;SDS011;67585;44.802;10.332;2023-04-29T11:06:16;15.90;;;9.82;;
78120;SDS011;67585;44.802;10.332;2023-04-29T11:08:41;22.25;;;11.30;;
78120;SDS011;67585;44.802;10.332;2023-04-29T11:11:07;20.73;;;9.48;;
78120;SDS011;67585;44.802;10.332;2023-04-29T11:13:36;18.80;;;9.07;;
78120;SDS011;67585;44.802;10.332;2023-04-29T11:16:09;17.67;;;7.70;;
78120;SDS011;67585;44.802;10.332;2023-04-29T11:18:36;18.25;;;8.80;;
78120;SDS011;67585;44.802;10.332;2023-04-29T11:21:34;19.50;;;9.32;;
78120;SDS011;67585;44.802;10.332;2023-04-29T11:24:01;17.15;;;8.88;;
78120;SDS011;67585;44.802;10.332;2023-04-29T11:26:28;19.67;;;9.55;;
78120;SDS011;67585;44.802;10.332;2023-04-29T11:28:53;19.40;;;9.38;;
78120;SDS011;67585;44.802;10.332;2023-04-29T11:33:49;22.25;;;10.80;;
78120;SDS011;67585;44.802;10.332;2023-04-29T11:36:15;21.75;;;11.38;;
78120;SDS011;67585;44.802;10.332;2023-04-29T11:38:40;22.10;;;10.32;;
78120;SDS011;67585;44.802;10.332;2023-04-29T11:41:06;19.85;;;10.82;;
78120;SDS011;67585;44.802;10.332;2023-04-29T11:43:31;22.27;;;10.13;;
78120;SDS011;67585;44.802;10.332;2023-04-29T11:45:56;21.15;;;11.35;;
78120;SDS011;67585;44.802;10.332;2023-04-29T11:48:23;22.02;;;12.80;;
78120;SDS011;67585;44.802;10.332;2023-04-29T11:50:57;21.58;;;10.35;;
78120;SDS011;67585;44.802;10.332;2023-04-29T11:53:24;20.10;;;10.80;;
78120;SDS011;67585;44.802;10.332;2023-04-29T11:55:53;18.92;;;11.25;;
78120;SDS011;67585;44.802;10.332;2023-04-29T11:58:20;22.65;;;11.02;;
78120;SDS011;67585;44.802;10.332;2023-04-29T12:00:46;19.85;;;11.15;;
78120;SDS011;67585;44.802;10.332;2023-04-29T12:03:15;18.88;;;9.20;;
78120;SDS011;67585;44.802;10.332;2023-04-29T12:05:45;18.25;;;10.95;;
78120;SDS011;67585;44.802;10.332;2023-04-29T12:08:18;19.42;;;8.20;;
78120;SDS011;67585;44.802;10.332;2023-04-29T12:10:44;19.05;;;9.10;;
78120;SDS011;67585;44.802;10.332;2023-04-29T12:13:11;17.10;;;8.27;;
78120;SDS011;67585;44.802;10.332;2023-04-29T12:15:37;18.05;;;9.93;;
78120;SDS011;67585;44.802;10.332;2023-04-29T12:18:03;18.98;;;9.30;;
78120;SDS011;67585;44.802;10.332;2023-04-29T12:20:28;16.10;;;9.25;;
78120;SDS011;67585;44.802;10.332;2023-04-29T12:22:54;21.13;;;10.75;;
78120;SDS011;67585;44.802;10.332;2023-04-29T12:25:26;16.90;;;7.53;;
78120;SDS011;67585;44.802;10.332;2023-04-29T12:27:57;16.60;;;9.65;;
78120;SDS011;67585;44.802;10.332;2023-04-29T12:30:24;18.33;;;9.13;;
78120;SDS011;67585;44.802;10.332;2023-04-29T12:32:50;17.60;;;9.32;;
78120;SDS011;67585;44.802;10.332;2023-04-29T12:35:16;17.10;;;8.90;;
78120;SDS011;67585;44.802;10.332;2023-04-29T12:37:49;16.25;;;9.75;;
78120;SDS011;67585;44.802;10.332;2023-04-29T12:40:15;17.05;;;8.25;;
78120;SDS011;67585;44.802;10.332;2023-04-29T12:42:41;19.15;;;9.68;;
78120;SDS011;67585;44.802;10.332;2023-04-29T12:45:25;18.92;;;9.20;;
78120;SDS011;67585;44.802;10.332;2023-04-29T12:47:50;19.20;;;9.77;;
78120;SDS011;67585;44.802;10.332;2023-04-29T12:50:16;17.75;;;9.50;;
78120;SDS011;67585;44.802;10.332;2023-04-29T12:52:42;15.05;;;9.02;;
78120;SDS011;67585;44.802;10.332;2023-04-29T12:55:10;17.50;;;8.95;;
78120;SDS011;67585;44.802;10.332;2023-04-29T12:57:36;16.20;;;8.65;;
78120;SDS011;67585;44.802;10.332;2023-04-29T13:00:03;16.10;;;9.73;;
78120;SDS011;67585;44.802;10.332;2023-04-29T13:02:30;14.50;;;8.00;;
78120;SDS011;67585;44.802;10.332;2023-04-29T13:04:56;20.58;;;8.35;;
78120;SDS011;67585;44.802;10.332;2023-04-29T13:07:21;18.08;;;8.35;;
78120;SDS011;67585;44.802;10.332;2023-04-29T13:09:47;17.08;;;7.55;;
78120;SDS011;67585;44.802;10.332;2023-04-29T13:12:14;13.93;;;6.18;;
78120;SDS011;67585;44.802;10.332;2023-04-29T13:14:43;11.75;;;4.80;;
78120;SDS011;67585;44.802;10.332;2023-04-29T13:17:08;13.60;;;6.40;;
78120;SDS011;67585;44.802;10.332;2023-04-29T13:19:34;12.05;;;6.70;;
78120;SDS011;67585;44.802;10.332;2023-04-29T13:22:00;13.05;;;6.20;;
78120;SDS011;67585;44.802;10.332;2023-04-29T13:24:25;9.95;;;5.13;;
78120;SDS011;67585;44.802;10.332;2023-04-29T13:26:51;8.43;;;4.65;;
78120;SDS011;67585;44.802;10.332;2023-04-29T13:29:18;9.95;;;5.15;;
78120;SDS011;67585;44.802;10.332;2023-04-29T13:31:43;11.88;;;5.82;;
78120;SDS011;67585;44.802;10.332;2023-04-29T13:34:09;10.77;;;5.93;;
78120;SDS011;67585;44.802;10.332;2023-04-29T13:36:35;13.50;;;5.78;;
78120;SDS011;67585;44.802;10.332;2023-04-29T13:39:00;13.10;;;6.45;;
78120;SDS011;67585;44.802;10.332;2023-04-29T13:41:26;10.80;;;5.97;;
78120;SDS011;67585;44.802;10.332;2023-04-29T13:43:51;13.23;;;6.40;;
78120;SDS011;67585;44.802;10.332;2023-04-29T13:46:16;18.08;;;6.60;;
78120;SDS011;67585;44.802;10.332;2023-04-29T13:48:42;15.27;;;6.45;;
78120;SDS011;67585;44.802;10.332;2023-04-29T13:51:07;9.73;;;4.97;;
78120;SDS011;67585;44.802;10.332;2023-04-29T13:53:33;12.43;;;4.53;;
78120;SDS011;67585;44.802;10.332;2023-04-29T13:55:58;13.52;;;4.55;;
78120;SDS011;67585;44.802;10.332;2023-04-29T13:58:24;10.95;;;3.88;;
78120;SDS011;67585;44.802;10.332;2023-04-29T14:00:49;8.10;;;4.07;;
78120;SDS011;67585;44.802;10.332;2023-04-29T14:03:14;6.63;;;3.10;;
78120;SDS011;67585;44.802;10.332;2023-04-29T14:05:42;6.93;;;3.42;;
78120;SDS011;67585;44.802;10.332;2023-04-29T14:08:08;8.85;;;3.92;;
78120;SDS011;67585;44.802;10.332;2023-04-29T14:10:33;12.65;;;5.60;;
78120;SDS011;67585;44.802;10.332;2023-04-29T14:12:59;10.95;;;5.35;;
78120;SDS011;67585;44.802;10.332;2023-04-29T14:15:24;13.52;;;4.75;;
78120;SDS011;67585;44.802;10.332;2023-04-29T14:17:50;13.20;;;4.32;;
78120;SDS011;67585;44.802;10.332;2023-04-29T14:20:15;9.90;;;3.88;;
78120;SDS011;67585;44.802;10.332;2023-04-29T14:22:40;9.88;;;4.93;;
78120;SDS011;67585;44.802;10.332;2023-04-29T14:25:06;12.57;;;4.35;;
78120;SDS011;67585;44.802;10.332;2023-04-29T14:27:32;10.63;;;4.55;;
78120;SDS011;67585;44.802;10.332;2023-04-29T14:29:59;10.93;;;5.35;;
78120;SDS011;67585;44.802;10.332;2023-04-29T14:32:25;12.35;;;5.68;;
78120;SDS011;67585;44.802;10.332;2023-04-29T14:34:50;11.98;;;3.83;;
78120;SDS011;67585;44.802;10.332;2023-04-29T14:37:15;10.90;;;4.80;;
78120;SDS011;67585;44.802;10.332;2023-04-29T14:39:41;11.57;;;5.10;;
78120;SDS011;67585;44.802;10.332;2023-04-29T14:42:06;13.43;;;7.68;;
78120;SDS011;67585;44.802;10.332;2023-04-29T14:44:32;10.57;;;5.80;;
78120;SDS011;67585;44.802;10.332;2023-04-29T14:47:06;10.52;;;5.28;;
78120;SDS011;67585;44.802;10.332;2023-04-29T14:49:33;10.85;;;5.90;;
78120;SDS011;67585;44.802;10.332;2023-04-29T14:51:58;12.07;;;5.85;;
78120;SDS011;67585;44.802;10.332;2023-04-29T14:54:23;9.80;;;4.30;;
78120;SDS011;67585;44.802;10.332;2023-04-29T14:56:51;13.80;;;5.45;;
78120;SDS011;67585;44.802;10.332;2023-04-29T14:59:16;10.48;;;4.70;;
78120;SDS011;67585;44.802;10.332;2023-04-29T15:01:41;12.57;;;4.90;;